Time;durP1;ratioP1;P1;durP2;ratioP2;P2;SDS_P1;SDS_P2;PMS_P1;PMS_P2;Temp;Humidity;BMP_temperature;BMP_pressure;BME280_temperature;BME280_humidity;BME280_pressure;Samples;Min_cycle;Max_cycle;Signal;HPM_P1;HPM_P2
2023/03/11 00:01:45;;;;;;;2.15;1.15;;;5.50;66.20;;;;;;5054502;28;20240;-69
2023/03/11 00:04:13;;;;;;;3.75;1.35;;;5.50;65.70;;;;;;5056778;28;20243;-69
2023/03/11 00:06:40;;;;;;;3.50;1.52;;;5.50;65.00;;;;;;5055298;28;20201;-70
2023/03/11 00:09:08;;;;;;;2.33;1.30;;;5.50;64.70;;;;;;5056157;28;20552;-69
2023/03/11 00:11:37;;;;;;;2.50;1.30;;;5.50;63.80;;;;;;5054679;28;20193;-70
2023/03/11 00:14:04;;;;;;;2.92;1.33;;;5.40;63.90;;;;;;5061976;28;20205;-69
2023/03/11 00:16:32;;;;;;;2.50;1.48;;;5.40;63.50;;;;;;5055210;28;20229;-70
2023/03/11 00:19:00;;;;;;;2.88;1.45;;;5.40;63.00;;;;;;5056026;28;20717;-69
2023/03/11 00:21:29;;;;;;;2.33;1.33;;;5.40;62.80;;;;;;5055170;28;20549;-69
2023/03/11 00:23:59;;;;;;;2.13;1.30;;;5.40;62.50;;;;;;5062105;28;20205;-74
2023/03/11 00:26:27;;;;;;;2.30;1.20;;;5.40;61.70;;;;;;5074905;28;20192;-70
2023/03/11 00:28:54;;;;;;;2.40;1.30;;;5.40;61.70;;;;;;5052902;28;20186;-69
2023/03/11 00:31:21;;;;;;;1.88;1.00;;;5.30;61.70;;;;;;5050474;28;20183;-70
2023/03/11 00:33:50;;;;;;;3.15;1.55;;;5.40;61.70;;;;;;5053886;28;20194;-70
2023/03/11 00:36:23;;;;;;;2.67;1.23;;;5.40;61.30;;;;;;5052144;28;20186;-69
2023/03/11 00:38:50;;;;;;;2.10;1.30;;;5.40;61.30;;;;;;5054680;28;20201;-69
2023/03/11 00:41:20;;;;;;;2.40;1.60;;;5.40;60.80;;;;;;5048958;28;20192;-69
2023/03/11 00:43:48;;;;;;;2.38;1.40;;;5.40;60.10;;;;;;5034157;28;20230;-69
2023/03/11 00:46:17;;;;;;;3.00;1.70;;;5.40;59.70;;;;;;5037327;28;20612;-69
2023/03/11 00:48:44;;;;;;;2.17;1.05;;;5.40;59.80;;;;;;5054380;28;20237;-69
2023/03/11 00:51:14;;;;;;;2.42;1.10;;;5.40;58.80;;;;;;5052481;28;20190;-69
2023/03/11 00:53:43;;;;;;;2.30;1.40;;;5.40;58.50;;;;;;5054381;28;20564;-70
2023/03/11 00:56:12;;;;;;;2.03;1.13;;;5.30;58.30;;;;;;5045950;28;20247;-69
2023/03/11 00:58:41;;;;;;;1.90;1.10;;;5.40;58.00;;;;;;5034398;28;20195;-70
2023/03/11 01:01:09;;;;;;;2.47;1.10;;;5.50;57.30;;;;;;5035186;28;20219;-70
2023/03/11 01:03:39;;;;;;;2.15;0.95;;;5.50;57.30;;;;;;5049944;28;20190;-70
2023/03/11 01:06:06;;;;;;;2.88;1.35;;;5.50;57.20;;;;;;5047337;28;20187;-70
2023/03/11 01:08:34;;;;;;;2.88;1.25;;;5.50;57.90;;;;;;5033803;28;20202;-70
2023/03/11 01:11:04;;;;;;;3.60;2.00;;;5.40;57.80;;;;;;5038352;28;20552;-69
2023/03/11 01:13:32;;;;;;;2.67;1.20;;;5.50;58.00;;;;;;5047015;28;20274;-69
2023/03/11 01:15:59;;;;;;;2.88;1.50;;;5.40;58.50;;;;;;5034189;28;20235;-70
2023/03/11 01:18:29;;;;;;;2.33;1.30;;;5.40;57.90;;;;;;5035730;28;20186;-70
2023/03/11 01:20:59;;;;;;;2.60;1.45;;;5.40;58.20;;;;;;5053949;28;20197;-70
2023/03/11 01:23:26;;;;;;;3.80;1.63;;;5.40;57.90;;;;;;5050596;28;20257;-70
2023/03/11 01:25:53;;;;;;;2.40;1.08;;;5.40;58.40;;;;;;5033838;28;20199;-69
2023/03/11 01:28:22;;;;;;;2.63;1.30;;;5.30;58.60;;;;;;5046470;28;20697;-71
2023/03/11 01:30:49;;;;;;;3.22;1.58;;;5.30;58.70;;;;;;5053528;28;20653;-70
2023/03/11 01:33:19;;;;;;;2.55;1.40;;;5.30;58.60;;;;;;5054114;28;20661;-70
2023/03/11 01:35:48;;;;;;;2.72;1.60;;;5.30;58.50;;;;;;5033629;28;20703;-70
2023/03/11 01:38:16;;;;;;;2.55;1.20;;;5.30;57.90;;;;;;5033551;28;20201;-70
2023/03/11 01:40:45;;;;;;;2.60;1.30;;;5.20;57.70;;;;;;5051196;28;20186;-70
2023/03/11 01:43:53;;;;;;;3.05;1.50;;;5.20;58.20;;;;;;5053271;28;20260;-70
2023/03/11 01:46:24;;;;;;;3.33;1.48;;;5.20;58.30;;;;;;5030430;28;20234;-70
2023/03/11 01:48:53;;;;;;;2.50;1.30;;;5.20;58.80;;;;;;5035207;28;20182;-69
2023/03/11 01:51:28;;;;;;;5.53;1.55;;;5.30;59.30;;;;;;5053279;28;20190;-70
2023/03/11 01:53:57;;;;;;;3.60;1.60;;;5.30;59.30;;;;;;5051410;28;20240;-70
2023/03/11 01:56:27;;;;;;;2.45;1.50;;;5.30;59.40;;;;;;5053159;28;20257;-70
2023/03/11 01:58:58;;;;;;;2.72;1.60;;;5.30;59.70;;;;;;5049857;28;20586;-70
2023/03/11 02:01:27;;;;;;;2.65;1.50;;;5.20;59.60;;;;;;5047691;28;20202;-70
2023/03/11 02:03:55;;;;;;;3.60;1.65;;;5.20;59.50;;;;;;5054154;28;20197;-70
2023/03/11 02:06:25;;;;;;;3.13;1.48;;;5.20;59.60;;;;;;5053139;28;20244;-70
2023/03/11 02:08:54;;;;;;;2.50;1.20;;;5.20;59.40;;;;;;5053971;28;20625;-70
2023/03/11 02:11:26;;;;;;;3.90;2.38;;;5.20;59.40;;;;;;5067291;28;20186;-70
2023/03/11 02:13:57;;;;;;;3.35;1.65;;;5.20;59.20;;;;;;5053872;28;20205;-71
2023/03/11 02:16:28;;;;;;;3.78;2.20;;;5.20;59.40;;;;;;5036231;28;20277;-70
2023/03/11 02:18:56;;;;;;;3.22;1.38;;;5.20;59.40;;;;;;5034312;28;20276;-71
2023/03/11 02:21:26;;;;;;;3.03;1.60;;;5.20;59.10;;;;;;5033634;28;20277;-70
2023/03/11 02:24:02;;;;;;;3.78;2.40;;;5.20;58.90;;;;;;5033783;28;20548;-71
2023/03/11 02:26:37;;;;;;;2.28;1.20;;;5.20;59.00;;;;;;5051341;28;20189;-72
2023/03/11 02:29:11;;;;;;;2.80;1.50;;;5.20;59.40;;;;;;5038998;28;20178;-70
2023/03/11 02:31:40;;;;;;;2.97;1.73;;;5.20;59.70;;;;;;5048862;28;20244;-70
2023/03/11 02:34:11;;;;;;;2.95;1.65;;;5.20;59.50;;;;;;5052479;28;20680;-70
2023/03/11 02:36:40;;;;;;;2.95;1.65;;;5.20;59.90;;;;;;5035180;28;20219;-70
2023/03/11 02:39:08;;;;;;;3.35;1.70;;;5.20;60.10;;;;;;5032640;28;20553;-70
2023/03/11 02:41:38;;;;;;;2.55;1.70;;;5.20;61.30;;;;;;5064529;28;20220;-70
2023/03/11 02:44:10;;;;;;;2.30;1.17;;;5.20;60.40;;;;;;5072419;28;20193;-70
2023/03/11 02:46:40;;;;;;;3.38;1.67;;;5.20;60.30;;;;;;5055647;28;20194;-70
2023/03/11 02:49:08;;;;;;;2.80;1.50;;;5.30;59.90;;;;;;5052560;28;20269;-70
2023/03/11 02:51:36;;;;;;;3.15;1.92;;;5.30;59.60;;;;;;5053727;28;20533;-73
2023/03/11 02:54:08;;;;;;;2.55;1.50;;;5.20;59.50;;;;;;5072429;28;20718;-70
2023/03/11 02:56:35;;;;;;;3.92;1.90;;;5.20;59.60;;;;;;5056141;28;20222;-70
2023/03/11 02:59:02;;;;;;;4.28;1.88;;;5.20;59.50;;;;;;5052166;28;20679;-71
2023/03/11 03:01:31;;;;;;;4.68;2.13;;;5.20;59.40;;;;;;5065244;28;20193;-70
2023/03/11 03:03:58;;;;;;;3.50;1.73;;;5.30;59.30;;;;;;5052412;28;20194;-75
2023/03/11 03:06:28;;;;;;;3.03;1.60;;;5.30;59.20;;;;;;5062605;28;20189;-70
2023/03/11 03:08:55;;;;;;;3.50;1.77;;;5.30;58.80;;;;;;5068723;28;20226;-70
2023/03/11 03:11:23;;;;;;;4.65;1.90;;;5.20;58.70;;;;;;5058437;28;20607;-69
2023/03/11 03:13:50;;;;;;;3.53;1.70;;;5.10;58.70;;;;;;5068563;28;20186;-70
2023/03/11 03:16:17;;;;;;;3.15;1.75;;;5.10;59.10;;;;;;5070043;28;21177;-78
2023/03/11 03:18:46;;;;;;;4.28;2.13;;;5.10;59.10;;;;;;5071583;28;20186;-71
2023/03/11 03:21:13;;;;;;;2.80;1.88;;;5.00;58.80;;;;;;5063702;28;20688;-70
2023/03/11 03:23:41;;;;;;;2.85;1.60;;;5.00;59.00;;;;;;5066132;28;20182;-70
2023/03/11 03:26:08;;;;;;;3.00;1.67;;;5.00;59.20;;;;;;5062770;28;20214;-70
2023/03/11 03:28:35;;;;;;;2.70;1.45;;;5.00;58.60;;;;;;5071815;28;20275;-70
2023/03/11 03:31:12;;;;;;;3.65;1.85;;;5.00;58.40;;;;;;5063371;28;20191;-70
2023/03/11 03:33:46;;;;;;;2.70;1.45;;;5.00;58.20;;;;;;5052095;28;20651;-70
2023/03/11 03:36:14;;;;;;;2.65;1.60;;;5.00;58.20;;;;;;5055211;28;20219;-70
2023/03/11 03:38:42;;;;;;;3.53;1.63;;;5.00;57.60;;;;;;5052737;28;20190;-69
2023/03/11 03:41:10;;;;;;;2.78;1.73;;;5.00;57.10;;;;;;5052007;28;20226;-70
2023/03/11 03:43:37;;;;;;;2.70;1.63;;;5.00;57.20;;;;;;5055023;28;20205;-70
2023/03/11 03:46:05;;;;;;;2.72;1.63;;;4.90;56.90;;;;;;5060240;28;20213;-70
2023/03/11 03:48:33;;;;;;;3.00;1.38;;;5.00;57.20;;;;;;5057509;28;20186;-70
2023/03/11 03:51:06;;;;;;;2.72;1.20;;;5.00;56.70;;;;;;5061486;28;20194;-69
2023/03/11 03:53:35;;;;;;;2.40;1.58;;;4.90;56.30;;;;;;5072165;28;20190;-70
2023/03/11 03:56:09;;;;;;;3.83;1.98;;;5.00;56.40;;;;;;5068844;28;20223;-69
2023/03/11 03:58:36;;;;;;;2.17;1.20;;;4.90;56.00;;;;;;5071731;28;20684;-70
2023/03/11 04:01:04;;;;;;;2.30;1.15;;;4.90;55.80;;;;;;5064947;28;20699;-70
2023/03/11 04:03:35;;;;;;;2.30;1.10;;;4.90;56.20;;;;;;5051930;28;20197;-70
2023/03/11 04:06:14;;;;;;;2.28;1.15;;;4.90;56.20;;;;;;5055738;28;20273;-71
2023/03/11 04:08:41;;;;;;;2.90;1.55;;;4.90;56.10;;;;;;5074466;28;20190;-71
2023/03/11 04:11:09;;;;;;;3.50;1.80;;;4.80;56.20;;;;;;5072698;28;20594;-70
2023/03/11 04:13:36;;;;;;;3.10;1.40;;;4.80;56.70;;;;;;5075054;28;20194;-71
2023/03/11 04:16:07;;;;;;;2.67;1.60;;;4.80;56.20;;;;;;5068714;28;20210;-71
2023/03/11 04:18:36;;;;;;;2.05;1.00;;;4.80;56.40;;;;;;5062149;28;20187;-71
2023/03/11 04:21:05;;;;;;;2.50;1.23;;;4.70;56.50;;;;;;5066248;28;20566;-72
2023/03/11 04:23:34;;;;;;;3.55;1.83;;;4.80;56.40;;;;;;5058355;28;20197;-71
2023/03/11 04:26:01;;;;;;;3.15;2.08;;;4.70;56.10;;;;;;5075082;28;20210;-71
2023/03/11 04:28:29;;;;;;;2.00;0.90;;;4.60;56.20;;;;;;5071781;28;20206;-71
2023/03/11 04:30:56;;;;;;;2.53;1.20;;;4.60;56.50;;;;;;5070337;28;20178;-71
2023/03/11 04:33:23;;;;;;;2.00;0.90;;;4.60;56.80;;;;;;5054877;28;20289;-70
2023/03/11 04:35:51;;;;;;;2.10;1.15;;;4.60;56.70;;;;;;5055712;28;20214;-71
2023/03/11 04:38:18;;;;;;;2.00;1.30;;;4.50;56.20;;;;;;5054167;28;20726;-70
2023/03/11 04:40:48;;;;;;;2.47;1.50;;;4.50;56.40;;;;;;5052330;28;20206;-71
2023/03/11 04:43:15;;;;;;;2.47;1.27;;;4.50;56.80;;;;;;5051373;28;20216;-71
2023/03/11 04:45:42;;;;;;;2.05;1.10;;;4.50;56.70;;;;;;5051448;28;20530;-71
2023/03/11 04:48:10;;;;;;;2.15;1.05;;;4.50;56.60;;;;;;5038805;28;20688;-71
2023/03/11 04:50:37;;;;;;;1.95;0.90;;;4.50;56.60;;;;;;5051595;28;20194;-72
2023/03/11 04:53:04;;;;;;;1.83;0.95;;;4.60;56.50;;;;;;5054021;28;20209;-71
2023/03/11 04:55:33;;;;;;;2.70;1.38;;;4.50;55.80;;;;;;5054243;28;20217;-71
2023/03/11 04:58:07;;;;;;;1.60;0.80;;;4.50;56.00;;;;;;5054435;28;20186;-70
2023/03/11 05:00:34;;;;;;;2.70;1.20;;;4.50;56.00;;;;;;5054845;28;20203;-73
2023/03/11 05:03:01;;;;;;;2.10;1.10;;;4.50;55.80;;;;;;5056688;28;20599;-71
2023/03/11 05:05:29;;;;;;;3.70;1.20;;;4.50;55.70;;;;;;5067202;28;20714;-70
2023/03/11 05:07:57;;;;;;;1.80;0.90;;;4.40;55.10;;;;;;5073853;28;20192;-70
2023/03/11 05:10:25;;;;;;;2.80;1.10;;;4.50;55.00;;;;;;5059994;28;20272;-70
2023/03/11 05:12:52;;;;;;;2.47;1.15;;;4.40;54.90;;;;;;5061728;28;20197;-71
2023/03/11 05:15:21;;;;;;;2.28;1.35;;;4.40;55.10;;;;;;5073592;28;20247;-71
2023/03/11 05:17:48;;;;;;;3.10;1.02;;;4.40;55.00;;;;;;5064845;28;20193;-70
2023/03/11 05:20:16;;;;;;;2.60;1.30;;;4.50;55.00;;;;;;5052317;28;20189;-71
2023/03/11 05:22:43;;;;;;;2.63;1.08;;;4.40;54.90;;;;;;5056216;28;20186;-72
2023/03/11 05:25:10;;;;;;;2.05;0.93;;;4.40;55.30;;;;;;5054009;28;20644;-71
2023/03/11 05:27:38;;;;;;;2.03;0.90;;;4.40;55.80;;;;;;5057731;28;20216;-71
2023/03/11 05:30:09;;;;;;;2.60;1.10;;;4.40;56.10;;;;;;5073689;28;20196;-70
2023/03/11 05:32:37;;;;;;;2.33;0.95;;;4.40;55.60;;;;;;5067493;28;20186;-71
2023/03/11 05:35:06;;;;;;;4.15;1.05;;;4.40;55.20;;;;;;5053333;28;20194;-71
2023/03/11 05:37:34;;;;;;;2.92;1.20;;;4.40;54.70;;;;;;5056626;28;20839;-71
2023/03/11 05:40:05;;;;;;;2.65;1.10;;;4.40;54.90;;;;;;5073363;28;20639;-71
2023/03/11 05:42:33;;;;;;;2.85;1.15;;;4.40;55.00;;;;;;5067798;28;20189;-71
2023/03/11 05:45:00;;;;;;;2.83;1.45;;;4.40;55.10;;;;;;5060575;28;20259;-71
2023/03/11 05:47:29;;;;;;;2.63;0.82;;;4.40;55.10;;;;;;5066894;28;20244;-71
2023/03/11 05:49:58;;;;;;;2.70;1.63;;;4.40;55.00;;;;;;5053034;28;20198;-71
2023/03/11 05:52:25;;;;;;;2.28;1.05;;;4.40;54.90;;;;;;5054599;28;20187;-70
2023/03/11 05:54:53;;;;;;;3.72;1.77;;;4.40;55.00;;;;;;5062600;28;20659;-71
2023/03/11 05:57:23;;;;;;;2.80;1.40;;;4.40;55.30;;;;;;5067190;28;20216;-71
2023/03/11 05:59:50;;;;;;;4.20;1.65;;;4.40;55.60;;;;;;5060134;28;20186;-70
2023/03/11 06:02:17;;;;;;;2.40;1.15;;;4.40;55.50;;;;;;5067621;28;20218;-70
2023/03/11 06:04:44;;;;;;;2.25;1.23;;;4.40;56.80;;;;;;5052953;28;20194;-71
2023/03/11 06:07:14;;;;;;;4.43;1.80;;;4.40;57.80;;;;;;5053935;28;20181;-71
2023/03/11 06:09:46;;;;;;;2.90;1.50;;;4.40;58.30;;;;;;5052756;28;20720;-70
2023/03/11 06:12:13;;;;;;;3.10;1.50;;;4.40;58.70;;;;;;5053680;28;20591;-71
2023/03/11 06:14:42;;;;;;;3.47;1.30;;;4.40;58.70;;;;;;5052686;28;20671;-71
2023/03/11 06:17:15;;;;;;;2.35;1.30;;;4.40;58.30;;;;;;5053584;28;20228;-71
2023/03/11 06:19:44;;;;;;;3.85;1.63;;;4.40;57.90;;;;;;5052742;28;20194;-70
2023/03/11 06:22:13;;;;;;;3.55;1.05;;;4.40;57.40;;;;;;5053630;28;20182;-71
2023/03/11 06:24:40;;;;;;;2.20;1.10;;;4.50;57.30;;;;;;5072619;28;20260;-71
2023/03/11 06:27:08;;;;;;;2.10;1.17;;;4.50;56.60;;;;;;5069690;28;20224;-71
2023/03/11 06:29:40;;;;;;;2.90;1.10;;;4.50;56.00;;;;;;5071872;28;20228;-71
2023/03/11 06:32:07;;;;;;;2.47;1.52;;;4.50;55.60;;;;;;5069339;28;20186;-78
2023/03/11 06:34:37;;;;;;;5.30;1.00;;;4.60;54.80;;;;;;5052290;28;20277;-70
2023/03/11 06:37:04;;;;;;;2.20;1.05;;;4.60;54.10;;;;;;5049961;28;20573;-70
2023/03/11 06:39:33;;;;;;;2.10;1.30;;;4.70;53.70;;;;;;5052310;28;20284;-71
2023/03/11 06:42:10;;;;;;;3.63;1.45;;;4.70;53.80;;;;;;5047263;28;20190;-71
2023/03/11 06:44:37;;;;;;;3.10;1.38;;;4.70;54.00;;;;;;5050485;28;20193;-72
2023/03/11 06:47:05;;;;;;;2.20;0.88;;;4.70;54.00;;;;;;5048460;28;20354;-70
2023/03/11 06:49:32;;;;;;;1.95;1.05;;;4.80;52.80;;;;;;5048926;28;20277;-70
2023/03/11 06:52:00;;;;;;;2.40;1.30;;;4.90;52.30;;;;;;5045597;28;20205;-71
2023/03/11 06:54:27;;;;;;;3.50;0.95;;;4.90;52.00;;;;;;5049356;28;20194;-71
2023/03/11 06:57:01;;;;;;;2.38;1.10;;;5.00;52.20;;;;;;5047683;28;20298;-71
2023/03/11 06:59:28;;;;;;;2.45;1.05;;;5.10;52.00;;;;;;5049374;28;20182;-71
2023/03/11 07:01:56;;;;;;;2.45;1.10;;;5.20;52.10;;;;;;5051155;28;20597;-71
2023/03/11 07:04:25;;;;;;;1.80;0.80;;;5.30;51.10;;;;;;5046821;28;20521;-70
2023/03/11 07:06:52;;;;;;;3.58;1.25;;;5.40;51.10;;;;;;5047359;28;20325;-70
2023/03/11 07:09:21;;;;;;;2.50;1.10;;;5.50;50.80;;;;;;5046154;28;20284;-70
2023/03/11 07:11:48;;;;;;;1.70;0.77;;;5.50;49.50;;;;;;5050001;28;20195;-72
2023/03/11 07:14:18;;;;;;;4.40;1.20;;;5.60;49.40;;;;;;5049211;28;20230;-70
2023/03/11 07:16:46;;;;;;;2.47;1.05;;;5.60;48.50;;;;;;5049689;28;20222;-72
2023/03/11 07:19:13;;;;;;;2.00;0.90;;;5.70;48.90;;;;;;5050844;28;20225;-71
2023/03/11 07:21:40;;;;;;;1.80;0.90;;;5.70;49.50;;;;;;5051527;28;20218;-71
2023/03/11 07:24:08;;;;;;;2.60;1.17;;;5.70;49.40;;;;;;5050684;28;20282;-71
2023/03/11 07:26:35;;;;;;;1.90;1.05;;;5.70;49.30;;;;;;5046945;28;20240;-72
2023/03/11 07:29:05;;;;;;;2.20;1.05;;;5.80;49.50;;;;;;5050691;28;20209;-73
2023/03/11 07:31:35;;;;;;;2.85;1.10;;;6.00;49.50;;;;;;5049744;28;20202;-71
2023/03/11 07:34:10;;;;;;;11.00;2.03;;;6.10;49.50;;;;;;5044341;28;20684;-71
2023/03/11 07:36:39;;;;;;;2.10;1.20;;;6.20;49.30;;;;;;5049290;28;20221;-72
2023/03/11 07:39:06;;;;;;;2.70;1.27;;;6.10;49.20;;;;;;5050180;28;20202;-71
2023/03/11 07:41:35;;;;;;;2.80;1.25;;;6.10;49.20;;;;;;5050459;28;20290;-75
2023/03/11 07:44:03;;;;;;;2.92;1.08;;;6.00;49.00;;;;;;5053190;28;20217;-72
2023/03/11 07:46:34;;;;;;;1.92;1.08;;;6.10;49.10;;;;;;5048817;28;20271;-71
2023/03/11 07:49:02;;;;;;;3.75;1.45;;;6.00;48.50;;;;;;5052897;28;20204;-71
2023/03/11 07:51:32;;;;;;;2.55;1.00;;;5.90;48.30;;;;;;5051388;28;20186;-72
2023/03/11 07:54:01;;;;;;;4.43;1.35;;;5.80;48.30;;;;;;5053944;28;20590;-71
2023/03/11 07:56:31;;;;;;;4.05;1.50;;;5.80;48.20;;;;;;5051039;28;20221;-71
2023/03/11 07:59:00;;;;;;;2.25;1.50;;;5.80;48.50;;;;;;5050947;28;20282;-71
2023/03/11 08:01:34;;;;;;;2.30;1.20;;;5.80;48.60;;;;;;5052435;28;20247;-71
2023/03/11 08:04:04;;;;;;;2.15;1.10;;;5.90;48.70;;;;;;5051775;28;20186;-72
2023/03/11 08:06:33;;;;;;;2.00;0.90;;;6.00;48.70;;;;;;5049857;28;20227;-73
2023/03/11 08:09:01;;;;;;;2.90;1.15;;;6.10;49.20;;;;;;5045124;28;20278;-71
2023/03/11 08:11:29;;;;;;;2.20;1.40;;;6.20;49.00;;;;;;5050299;28;20279;-71
2023/03/11 08:13:57;;;;;;;2.20;1.15;;;6.30;48.70;;;;;;5052546;28;20226;-71
2023/03/11 08:16:25;;;;;;;2.55;1.10;;;6.20;47.70;;;;;;5049098;28;20190;-72
2023/03/11 08:18:53;;;;;;;3.20;1.70;;;6.20;47.50;;;;;;5053938;28;20190;-72
2023/03/11 08:21:23;;;;;;;2.20;1.15;;;6.20;47.20;;;;;;5049091;28;20281;-71
2023/03/11 08:23:50;;;;;;;2.88;1.45;;;6.20;47.10;;;;;;5052593;28;20190;-72
2023/03/11 08:26:19;;;;;;;2.95;1.92;;;6.20;47.70;;;;;;5050656;28;20641;-77
2023/03/11 08:28:46;;;;;;;2.28;1.42;;;6.20;47.60;;;;;;5050253;28;20317;-71
2023/03/11 08:31:17;;;;;;;2.10;1.10;;;6.20;47.60;;;;;;5052263;28;20273;-71
2023/03/11 08:33:45;;;;;;;3.28;1.10;;;6.10;47.30;;;;;;5051907;28;20187;-71
2023/03/11 08:36:12;;;;;;;2.53;1.50;;;6.20;47.40;;;;;;5048606;28;20697;-71
2023/03/11 08:38:41;;;;;;;2.40;1.40;;;6.20;46.90;;;;;;5053242;28;20260;-71
2023/03/11 08:41:08;;;;;;;12.75;1.80;;;6.20;47.20;;;;;;5051250;28;20218;-72
2023/03/11 08:43:35;;;;;;;2.95;1.95;;;6.20;48.00;;;;;;5052250;28;20715;-71
2023/03/11 08:46:05;;;;;;;2.80;1.30;;;6.30;48.60;;;;;;5051914;28;20260;-72
2023/03/11 08:48:36;;;;;;;2.33;1.45;;;6.40;48.50;;;;;;5047888;28;20195;-72
2023/03/11 08:51:10;;;;;;;2.10;1.20;;;6.40;49.00;;;;;;5049640;28;20238;-71
2023/03/11 08:53:37;;;;;;;4.22;1.42;;;6.50;48.90;;;;;;5052101;28;20230;-75
2023/03/11 08:56:06;;;;;;;2.38;1.30;;;6.60;48.60;;;;;;5052969;28;20193;-71
2023/03/11 08:58:33;;;;;;;1.95;1.05;;;6.50;47.50;;;;;;5051257;28;20673;-71
2023/03/11 09:01:00;;;;;;;2.20;1.02;;;6.60;47.00;;;;;;5051636;28;20225;-71
2023/03/11 09:03:30;;;;;;;2.25;1.20;;;6.60;47.10;;;;;;5052247;28;20237;-71
2023/03/11 09:05:58;;;;;;;3.88;1.60;;;6.70;47.20;;;;;;5049676;28;20197;-72
2023/03/11 09:08:25;;;;;;;6.38;1.33;;;6.70;46.60;;;;;;5048116;28;20247;-71
2023/03/11 09:10:52;;;;;;;4.32;1.90;;;6.70;46.50;;;;;;5048801;28;20300;-71
2023/03/11 09:13:27;;;;;;;5.07;2.20;;;6.80;46.10;;;;;;5050842;28;20277;-71
2023/03/11 09:15:54;;;;;;;2.95;1.70;;;6.70;45.50;;;;;;5047547;28;20194;-73
2023/03/11 09:18:21;;;;;;;2.65;1.58;;;6.70;46.30;;;;;;5051367;28;20312;-72
2023/03/11 09:20:49;;;;;;;2.53;1.40;;;6.90;46.80;;;;;;5044832;28;20589;-71
2023/03/11 09:23:17;;;;;;;4.35;1.60;;;7.00;45.40;;;;;;5051517;28;20281;-71
2023/03/11 09:25:44;;;;;;;4.00;1.30;;;6.90;44.80;;;;;;5046853;28;20649;-71
2023/03/11 09:28:11;;;;;;;2.70;1.30;;;7.00;44.80;;;;;;5050813;28;20313;-71
2023/03/11 09:30:40;;;;;;;1.80;0.90;;;7.00;44.60;;;;;;5048869;28;20720;-71
2023/03/11 09:33:07;;;;;;;5.70;1.50;;;7.10;44.40;;;;;;5051019;28;20281;-71
2023/03/11 09:35:34;;;;;;;3.65;1.33;;;7.10;44.30;;;;;;5052945;28;20277;-72
2023/03/11 09:38:03;;;;;;;2.35;1.27;;;7.20;44.00;;;;;;5051369;28;20234;-72
2023/03/11 09:40:48;;;;;;;2.80;1.27;;;7.20;43.80;;;;;;5048322;28;20186;-72
2023/03/11 09:43:26;;;;;;;3.03;1.75;;;7.10;43.80;;;;;;5048704;28;20217;-71
2023/03/11 09:46:04;;;;;;;12.25;7.35;;;7.10;43.40;;;;;;5043255;28;20285;-72
2023/03/11 09:48:35;;;;;;;6.90;4.75;;;7.00;42.80;;;;;;5050894;28;20222;-72
2023/03/11 09:51:09;;;;;;;13.80;8.02;;;7.00;43.30;;;;;;5050382;28;20270;-72
2023/03/11 09:53:41;;;;;;;17.38;11.75;;;7.00;43.90;;;;;;5047165;28;20275;-71
2023/03/11 09:56:14;;;;;;;3.97;3.10;;;7.10;43.70;;;;;;5050363;28;20186;-74
2023/03/11 09:58:49;;;;;;;6.35;5.15;;;7.10;43.90;;;;;;5047996;28;20207;-71
2023/03/11 10:01:24;;;;;;;6.45;3.17;;;7.20;43.50;;;;;;5050980;28;20614;-71
2023/03/11 10:03:53;;;;;;;2.80;2.40;;;7.20;43.20;;;;;;5050007;28;20221;-71
2023/03/11 10:06:22;;;;;;;3.25;2.20;;;7.20;42.70;;;;;;5050262;28;20193;-72
2023/03/11 10:08:59;;;;;;;4.10;3.00;;;7.10;42.70;;;;;;5046804;28;20279;-73
2023/03/11 10:11:50;;;;;;;5.10;2.55;;;7.10;43.20;;;;;;5045096;28;20260;-71
2023/03/11 10:14:48;;;;;;;5.90;2.03;;;7.20;43.90;;;;;;5046348;28;20182;-71
2023/03/11 10:17:34;;;;;;;10.43;9.35;;;7.20;43.20;;;;;;5050245;28;20245;-71
2023/03/11 10:20:07;;;;;;;4.10;3.35;;;7.40;43.10;;;;;;5050967;28;20207;-71
2023/03/11 10:22:45;;;;;;;3.38;2.38;;;7.50;41.70;;;;;;5051415;28;20194;-72
2023/03/11 10:25:15;;;;;;;2.85;1.45;;;7.60;41.70;;;;;;5049479;28;20642;-71
2023/03/11 10:27:50;;;;;;;5.20;1.45;;;7.80;41.10;;;;;;5050441;28;20218;-69
2023/03/11 10:30:27;;;;;;;4.93;1.50;;;8.00;41.30;;;;;;5044027;28;20216;-71
2023/03/11 10:33:06;;;;;;;3.13;1.98;;;8.10;41.20;;;;;;5046406;28;20277;-72
2023/03/11 10:35:39;;;;;;;3.25;1.50;;;8.10;41.20;;;;;;5047377;28;20194;-72
2023/03/11 10:38:13;;;;;;;4.40;2.63;;;8.10;40.00;;;;;;5047601;28;20676;-71
2023/03/11 10:40:42;;;;;;;6.13;5.18;;;8.20;40.40;;;;;;5046295;28;20720;-71
2023/03/11 10:43:13;;;;;;;4.85;3.53;;;8.30;39.90;;;;;;5051312;28;20210;-72
2023/03/11 10:45:43;;;;;;;3.90;2.13;;;8.30;40.00;;;;;;5042659;28;20213;-73
2023/03/11 10:48:14;;;;;;;4.15;1.90;;;8.30;40.40;;;;;;5041616;28;20637;-71
2023/03/11 10:50:49;;;;;;;3.03;1.92;;;8.30;40.50;;;;;;5047741;28;20660;-72
2023/03/11 10:53:19;;;;;;;3.92;1.40;;;8.40;39.90;;;;;;5046430;28;20248;-73
2023/03/11 10:55:48;;;;;;;3.60;1.65;;;8.40;39.50;;;;;;5047243;28;20632;-72
2023/03/11 10:58:18;;;;;;;4.03;2.40;;;8.50;40.00;;;;;;5048157;28;20312;-71
2023/03/11 11:00:45;;;;;;;2.42;1.48;;;8.50;39.70;;;;;;5043953;28;20249;-71
2023/03/11 11:03:23;;;;;;;9.30;1.75;;;8.50;40.20;;;;;;5044778;28;20182;-71
2023/03/11 11:06:00;;;;;;;2.35;1.58;;;8.40;39.50;;;;;;5049007;28;20284;-70
2023/03/11 11:08:28;;;;;;;2.60;1.45;;;8.40;39.90;;;;;;5041326;28;20684;-70
2023/03/11 11:10:56;;;;;;;2.92;1.40;;;8.40;40.00;;;;;;5046806;28;20194;-70
2023/03/11 11:13:25;;;;;;;2.20;1.23;;;8.40;39.70;;;;;;5043493;28;20228;-72
2023/03/11 11:15:55;;;;;;;3.65;1.35;;;8.60;39.40;;;;;;5040680;28;20191;-70
2023/03/11 11:18:27;;;;;;;3.95;1.52;;;8.90;38.50;;;;;;5049289;28;20588;-78
2023/03/11 11:20:59;;;;;;;3.20;1.95;;;9.20;37.40;;;;;;5044041;28;20249;-71
2023/03/11 11:23:33;;;;;;;2.90;1.33;;;9.30;37.40;;;;;;5045743;28;20201;-70
2023/03/11 11:26:03;;;;;;;2.92;1.45;;;9.40;37.50;;;;;;5045133;28;20202;-70
2023/03/11 11:28:32;;;;;;;2.30;1.13;;;9.30;37.20;;;;;;5049811;28;20253;-71
2023/03/11 11:31:02;;;;;;;3.03;1.85;;;9.30;37.10;;;;;;5046997;28;21081;-70
2023/03/11 11:33:33;;;;;;;2.00;1.30;;;9.50;37.10;;;;;;5046694;28;20271;-69
2023/03/11 11:36:03;;;;;;;5.50;2.00;;;9.70;36.20;;;;;;5046147;28;20278;-70
2023/03/11 11:38:36;;;;;;;3.92;1.90;;;10.20;34.80;;;;;;5052017;28;20239;-70
2023/03/11 11:41:04;;;;;;;6.20;4.00;;;10.60;33.60;;;;;;5051747;28;20277;-70
2023/03/11 11:43:42;;;;;;;4.45;1.92;;;10.90;33.60;;;;;;5046535;28;20205;-71
2023/03/11 11:46:18;;;;;;;4.30;2.15;;;12.30;35.50;;;;;;5048077;28;20658;-70
2023/03/11 11:48:56;;;;;;;2.97;1.83;;;15.20;32.50;;;;;;5047542;28;20209;-71
2023/03/11 11:51:29;;;;;;;2.70;1.70;;;19.00;27.10;;;;;;5051069;28;20439;-71
2023/03/11 11:54:01;;;;;;;3.50;1.93;;;20.80;24.30;;;;;;5045442;28;20479;-71
2023/03/11 11:56:28;;;;;;;2.40;1.30;;;22.40;22.50;;;;;;5046680;28;20946;-71
2023/03/11 11:58:55;;;;;;;3.20;2.33;;;22.50;20.60;;;;;;5048223;28;20583;-72
2023/03/11 12:01:35;;;;;;;3.83;2.40;;;23.20;20.90;;;;;;5045844;28;20860;-71
2023/03/11 12:04:42;;;;;;;3.17;1.80;;;25.10;19.10;;;;;;5046918;28;20512;-71
2023/03/11 12:07:21;;;;;;;3.10;1.90;;;26.20;16.40;;;;;;5048466;28;20425;-71
2023/03/11 12:09:59;;;;;;;4.20;1.93;;;24.30;16.10;;;;;;5047273;28;20858;-72
2023/03/11 12:12:32;;;;;;;4.43;1.60;;;22.80;16.80;;;;;;5047626;28;20794;-71
2023/03/11 12:15:10;;;;;;;4.50;2.20;;;20.60;17.20;;;;;;5045474;28;20452;-71
2023/03/11 12:17:42;;;;;;;2.97;1.90;;;18.50;18.80;;;;;;5044522;28;20443;-71
2023/03/11 12:20:19;;;;;;;3.27;2.00;;;17.00;20.90;;;;;;5044763;28;20858;-70
2023/03/11 12:23:21;;;;;;;3.00;2.03;;;15.70;21.50;;;;;;5045355;28;20448;-73
2023/03/11 12:26:02;;;;;;;2.92;2.00;;;14.80;23.10;;;;;;5047558;28;20456;-71
2023/03/11 12:28:38;;;;;;;4.43;2.47;;;14.30;23.20;;;;;;5051766;28;20214;-71
2023/03/11 12:31:09;;;;;;;4.53;1.65;;;14.50;24.40;;;;;;5050945;28;20225;-71
2023/03/11 12:33:39;;;;;;;5.43;1.67;;;14.40;23.50;;;;;;5052697;28;20194;-71
2023/03/11 12:36:20;;;;;;;3.20;1.85;;;13.90;24.10;;;;;;5052317;28;20305;-71
2023/03/11 12:38:49;;;;;;;2.83;1.73;;;13.60;24.60;;;;;;5052778;28;20307;-71
2023/03/11 12:41:32;;;;;;;2.85;1.60;;;13.40;25.50;;;;;;5050210;28;20190;-71
2023/03/11 12:44:05;;;;;;;3.97;2.60;;;13.40;27.10;;;;;;5046776;28;20213;-71
2023/03/11 12:47:09;;;;;;;2.85;1.70;;;13.60;27.00;;;;;;5052012;28;20253;-72
2023/03/11 12:49:38;;;;;;;3.13;2.10;;;13.70;26.50;;;;;;5052479;28;20245;-74
2023/03/11 12:52:21;;;;;;;4.10;1.80;;;13.60;26.20;;;;;;5048713;28;20248;-72
2023/03/11 12:54:49;;;;;;;2.78;1.50;;;13.50;26.00;;;;;;5052495;28;20222;-73
2023/03/11 12:57:34;;;;;;;4.47;2.40;;;13.50;25.90;;;;;;5047773;28;20269;-73
2023/03/11 13:00:29;;;;;;;3.58;2.75;;;13.80;26.20;;;;;;5051069;28;20193;-71
2023/03/11 13:03:15;;;;;;;2.75;1.80;;;13.90;25.30;;;;;;5045301;28;20186;-72
2023/03/11 13:05:54;;;;;;;4.18;1.90;;;13.60;26.00;;;;;;5052025;28;20213;-71
2023/03/11 13:08:25;;;;;;;3.10;1.90;;;13.30;26.30;;;;;;5050425;28;20196;-71
2023/03/11 13:10:54;;;;;;;3.28;1.90;;;13.20;27.30;;;;;;5052114;28;20186;-73
2023/03/11 13:13:40;;;;;;;2.80;2.10;;;13.20;26.50;;;;;;5050543;28;20196;-72